sensor_id;sensor_type;location;lat;lon;timestamp;temperature;humidity
35700;DHT22;21818;51.078;12.108;2024-01-27T00:01:38;10.80;84.50
35700;DHT22;21818;51.078;12.108;2024-01-27T00:04:03;10.80;84.50
35700;DHT22;21818;51.078;12.108;2024-01-27T00:06:29;10.70;84.40
35700;DHT22;21818;51.078;12.108;2024-01-27T00:08:55;10.70;84.20
35700;DHT22;21818;51.078;12.108;2024-01-27T00:11:20;10.80;84.10
35700;DHT22;21818;51.078;12.108;2024-01-27T00:13:46;10.80;83.90
35700;DHT22;21818;51.078;12.108;2024-01-27T00:16:11;10.70;83.70
35700;DHT22;21818;51.078;12.108;2024-01-27T00:18:38;10.70;83.80
35700;DHT22;21818;51.078;12.108;2024-01-27T00:21:07;10.70;83.80
35700;DHT22;21818;51.078;12.108;2024-01-27T00:23:33;10.70;83.70
35700;DHT22;21818;51.078;12.108;2024-01-27T00:26:03;10.70;83.60
35700;DHT22;21818;51.078;12.108;2024-01-27T00:28:29;10.60;83.40
35700;DHT22;21818;51.078;12.108;2024-01-27T00:30:54;10.60;83.40
35700;DHT22;21818;51.078;12.108;2024-01-27T00:33:21;10.50;83.20
35700;DHT22;21818;51.078;12.108;2024-01-27T00:35:46;10.50;83.20
35700;DHT22;21818;51.078;12.108;2024-01-27T00:38:12;10.50;83.20
35700;DHT22;21818;51.078;12.108;2024-01-27T00:40:37;10.40;83.00
35700;DHT22;21818;51.078;12.108;2024-01-27T00:43:03;10.50;82.80
35700;DHT22;21818;51.078;12.108;2024-01-27T00:45:29;10.40;82.70
35700;DHT22;21818;51.078;12.108;2024-01-27T00:47:58;10.40;82.70
35700;DHT22;21818;51.078;12.108;2024-01-27T00:50:24;10.40;82.60
35700;DHT22;21818;51.078;12.108;2024-01-27T00:52:49;10.40;82.50
35700;DHT22;21818;51.078;12.108;2024-01-27T00:55:15;10.40;82.30
35700;DHT22;21818;51.078;12.108;2024-01-27T00:57:40;10.40;82.20
35700;DHT22;21818;51.078;12.108;2024-01-27T01:00:07;10.40;82.20
35700;DHT22;21818;51.078;12.108;2024-01-27T01:02:33;10.30;82.10
35700;DHT22;21818;51.078;12.108;2024-01-27T01:04:59;10.30;82.00
35700;DHT22;21818;51.078;12.108;2024-01-27T01:07:25;10.30;82.00
35700;DHT22;21818;51.078;12.108;2024-01-27T01:09:50;10.30;81.90
35700;DHT22;21818;51.078;12.108;2024-01-27T01:12:16;10.30;81.90
35700;DHT22;21818;51.078;12.108;2024-01-27T01:14:43;10.30;81.60
35700;DHT22;21818;51.078;12.108;2024-01-27T01:17:08;10.30;81.50
35700;DHT22;21818;51.078;12.108;2024-01-27T01:19:35;10.20;81.50
35700;DHT22;21818;51.078;12.108;2024-01-27T01:22:01;10.20;81.40
35700;DHT22;21818;51.078;12.108;2024-01-27T01:24:27;10.20;81.80
35700;DHT22;21818;51.078;12.108;2024-01-27T01:26:52;10.20;81.30
35700;DHT22;21818;51.078;12.108;2024-01-27T01:29:18;10.20;81.20
35700;DHT22;21818;51.078;12.108;2024-01-27T01:31:43;10.20;81.10
35700;DHT22;21818;51.078;12.108;2024-01-27T01:34:09;10.20;81.00
35700;DHT22;21818;51.078;12.108;2024-01-27T01:36:34;10.20;81.00
35700;DHT22;21818;51.078;12.108;2024-01-27T01:39:00;10.20;80.90
35700;DHT22;21818;51.078;12.108;2024-01-27T01:41:25;10.20;80.80
35700;DHT22;21818;51.078;12.108;2024-01-27T01:43:51;10.20;80.90
35700;DHT22;21818;51.078;12.108;2024-01-27T01:46:17;10.20;80.90
35700;DHT22;21818;51.078;12.108;2024-01-27T01:48:43;10.20;81.00
35700;DHT22;21818;51.078;12.108;2024-01-27T01:51:08;10.20;80.90
35700;DHT22;21818;51.078;12.108;2024-01-27T01:53:34;10.10;80.90
35700;DHT22;21818;51.078;12.108;2024-01-27T01:56:01;10.10;80.90
35700;DHT22;21818;51.078;12.108;2024-01-27T01:58:26;10.20;80.90
35700;DHT22;21818;51.078;12.108;2024-01-27T02:01:02;10.20;80.90
35700;DHT22;21818;51.078;12.108;2024-01-27T02:03:28;10.10;80.90
35700;DHT22;21818;51.078;12.108;2024-01-27T02:05:54;10.10;80.80
35700;DHT22;21818;51.078;12.108;2024-01-27T02:08:20;10.10;80.90
35700;DHT22;21818;51.078;12.108;2024-01-27T02:10:45;10.10;80.90
35700;DHT22;21818;51.078;12.108;2024-01-27T02:13:23;10.10;80.90
35700;DHT22;21818;51.078;12.108;2024-01-27T02:15:50;10.10;80.90
35700;DHT22;21818;51.078;12.108;2024-01-27T02:18:16;10.00;80.90
35700;DHT22;21818;51.078;12.108;2024-01-27T02:20:42;10.10;80.90
35700;DHT22;21818;51.078;12.108;2024-01-27T02:23:08;10.10;81.00
35700;DHT22;21818;51.078;12.108;2024-01-27T02:25:34;10.10;81.00
35700;DHT22;21818;51.078;12.108;2024-01-27T02:28:00;10.10;81.00
35700;DHT22;21818;51.078;12.108;2024-01-27T02:30:28;10.10;81.10
35700;DHT22;21818;51.078;12.108;2024-01-27T02:32:55;10.10;81.40
35700;DHT22;21818;51.078;12.108;2024-01-27T02:35:20;10.00;81.20
35700;DHT22;21818;51.078;12.108;2024-01-27T02:37:46;10.10;81.30
35700;DHT22;21818;51.078;12.108;2024-01-27T02:40:11;10.10;81.20
35700;DHT22;21818;51.078;12.108;2024-01-27T02:42:37;10.00;81.40
35700;DHT22;21818;51.078;12.108;2024-01-27T02:45:03;10.00;81.30
35700;DHT22;21818;51.078;12.108;2024-01-27T02:47:30;10.10;81.40
35700;DHT22;21818;51.078;12.108;2024-01-27T02:49:55;10.00;81.30
35700;DHT22;21818;51.078;12.108;2024-01-27T02:52:21;10.10;81.30
35700;DHT22;21818;51.078;12.108;2024-01-27T02:54:47;10.10;81.30
35700;DHT22;21818;51.078;12.108;2024-01-27T02:57:12;10.20;81.20
35700;DHT22;21818;51.078;12.108;2024-01-27T02:59:38;10.10;81.20
35700;DHT22;21818;51.078;12.108;2024-01-27T03:02:05;10.10;81.20
35700;DHT22;21818;51.078;12.108;2024-01-27T03:04:30;10.10;81.10
35700;DHT22;21818;51.078;12.108;2024-01-27T03:06:56;10.10;81.10
35700;DHT22;21818;51.078;12.108;2024-01-27T03:09:21;10.20;81.00
35700;DHT22;21818;51.078;12.108;2024-01-27T03:11:47;10.20;81.00
35700;DHT22;21818;51.078;12.108;2024-01-27T03:14:13;10.10;80.70
35700;DHT22;21818;51.078;12.108;2024-01-27T03:16:38;10.20;80.90
35700;DHT22;21818;51.078;12.108;2024-01-27T03:19:04;10.10;80.80
35700;DHT22;21818;51.078;12.108;2024-01-27T03:21:29;10.10;80.50
35700;DHT22;21818;51.078;12.108;2024-01-27T03:23:55;10.10;80.60
35700;DHT22;21818;51.078;12.108;2024-01-27T03:26:21;10.10;80.80
35700;DHT22;21818;51.078;12.108;2024-01-27T03:28:46;10.00;80.70
35700;DHT22;21818;51.078;12.108;2024-01-27T03:31:12;10.10;80.70
35700;DHT22;21818;51.078;12.108;2024-01-27T03:33:38;10.00;80.60
35700;DHT22;21818;51.078;12.108;2024-01-27T03:36:09;10.10;80.60
35700;DHT22;21818;51.078;12.108;2024-01-27T03:38:35;10.10;80.70
35700;DHT22;21818;51.078;12.108;2024-01-27T03:41:02;10.00;80.70
35700;DHT22;21818;51.078;12.108;2024-01-27T03:43:27;10.00;80.60
35700;DHT22;21818;51.078;12.108;2024-01-27T03:45:53;10.00;80.50
35700;DHT22;21818;51.078;12.108;2024-01-27T03:48:18;10.00;80.60
35700;DHT22;21818;51.078;12.108;2024-01-27T03:50:44;10.00;80.60
35700;DHT22;21818;51.078;12.108;2024-01-27T03:53:10;10.00;80.70
35700;DHT22;21818;51.078;12.108;2024-01-27T03:55:35;10.00;80.60
35700;DHT22;21818;51.078;12.108;2024-01-27T03:58:01;10.00;80.60
35700;DHT22;21818;51.078;12.108;2024-01-27T04:00:27;9.90;80.60
35700;DHT22;21818;51.078;12.108;2024-01-27T04:02:55;9.90;80.60
35700;DHT22;21818;51.078;12.108;2024-01-27T04:05:20;9.90;80.50
35700;DHT22;21818;51.078;12.108;2024-01-27T04:07:46;9.80;80.50
35700;DHT22;21818;51.078;12.108;2024-01-27T04:10:11;9.80;80.50
35700;DHT22;21818;51.078;12.108;2024-01-27T04:12:37;9.80;80.60
35700;DHT22;21818;51.078;12.108;2024-01-27T04:15:02;9.80;80.50
35700;DHT22;21818;51.078;12.108;2024-01-27T04:17:28;9.80;80.50
35700;DHT22;21818;51.078;12.108;2024-01-27T04:19:53;9.70;80.50
35700;DHT22;21818;51.078;12.108;2024-01-27T04:22:19;9.70;80.50
35700;DHT22;21818;51.078;12.108;2024-01-27T04:24:45;9.70;80.60
35700;DHT22;21818;51.078;12.108;2024-01-27T04:27:10;9.80;80.50
35700;DHT22;21818;51.078;12.108;2024-01-27T04:29:36;9.80;80.40
35700;DHT22;21818;51.078;12.108;2024-01-27T04:32:01;9.80;80.30
35700;DHT22;21818;51.078;12.108;2024-01-27T04:34:27;9.80;80.30
35700;DHT22;21818;51.078;12.108;2024-01-27T04:36:52;9.70;80.20
35700;DHT22;21818;51.078;12.108;2024-01-27T04:39:18;9.70;80.30
35700;DHT22;21818;51.078;12.108;2024-01-27T04:41:44;9.60;80.30
35700;DHT22;21818;51.078;12.108;2024-01-27T04:44:09;9.70;80.50
35700;DHT22;21818;51.078;12.108;2024-01-27T04:46:35;9.80;80.70
35700;DHT22;21818;51.078;12.108;2024-01-27T04:49:00;9.80;80.70
35700;DHT22;21818;51.078;12.108;2024-01-27T04:51:26;9.70;81.20
35700;DHT22;21818;51.078;12.108;2024-01-27T04:53:51;9.80;80.90
35700;DHT22;21818;51.078;12.108;2024-01-27T04:56:17;9.70;80.80
35700;DHT22;21818;51.078;12.108;2024-01-27T04:58:42;9.70;81.30
35700;DHT22;21818;51.078;12.108;2024-01-27T05:01:08;9.70;80.80
35700;DHT22;21818;51.078;12.108;2024-01-27T05:03:33;9.60;80.90
35700;DHT22;21818;51.078;12.108;2024-01-27T05:05:59;9.70;80.80
35700;DHT22;21818;51.078;12.108;2024-01-27T05:08:25;9.70;80.80
35700;DHT22;21818;51.078;12.108;2024-01-27T05:10:51;9.60;80.60
35700;DHT22;21818;51.078;12.108;2024-01-27T05:13:16;9.60;80.60
35700;DHT22;21818;51.078;12.108;2024-01-27T05:15:42;9.60;80.70
35700;DHT22;21818;51.078;12.108;2024-01-27T05:18:07;9.60;80.70
35700;DHT22;21818;51.078;12.108;2024-01-27T05:20:33;9.60;80.60
35700;DHT22;21818;51.078;12.108;2024-01-27T05:22:58;9.60;80.70
35700;DHT22;21818;51.078;12.108;2024-01-27T05:25:24;9.60;80.80
35700;DHT22;21818;51.078;12.108;2024-01-27T05:27:50;9.60;80.60
35700;DHT22;21818;51.078;12.108;2024-01-27T05:30:16;9.60;80.70
35700;DHT22;21818;51.078;12.108;2024-01-27T05:32:41;9.60;80.70
35700;DHT22;21818;51.078;12.108;2024-01-27T05:35:07;9.60;80.80
35700;DHT22;21818;51.078;12.108;2024-01-27T05:37:33;9.60;80.70
35700;DHT22;21818;51.078;12.108;2024-01-27T05:39:58;9.60;80.80
35700;DHT22;21818;51.078;12.108;2024-01-27T05:42:24;9.60;80.60
35700;DHT22;21818;51.078;12.108;2024-01-27T05:44:49;9.60;80.70
35700;DHT22;21818;51.078;12.108;2024-01-27T05:47:15;9.50;80.70
35700;DHT22;21818;51.078;12.108;2024-01-27T05:49:41;9.60;80.70
35700;DHT22;21818;51.078;12.108;2024-01-27T05:52:06;9.50;80.70
35700;DHT22;21818;51.078;12.108;2024-01-27T05:54:32;9.50;80.80
35700;DHT22;21818;51.078;12.108;2024-01-27T05:56:58;9.50;80.80
35700;DHT22;21818;51.078;12.108;2024-01-27T05:59:24;9.60;80.70
35700;DHT22;21818;51.078;12.108;2024-01-27T06:01:49;9.60;80.70
35700;DHT22;21818;51.078;12.108;2024-01-27T06:04:15;9.50;80.60
35700;DHT22;21818;51.078;12.108;2024-01-27T06:06:40;9.60;80.70
35700;DHT22;21818;51.078;12.108;2024-01-27T06:09:07;9.50;80.50
35700;DHT22;21818;51.078;12.108;2024-01-27T06:11:41;9.50;80.50
35700;DHT22;21818;51.078;12.108;2024-01-27T06:14:07;9.50;80.50
35700;DHT22;21818;51.078;12.108;2024-01-27T06:16:33;9.50;80.60
35700;DHT22;21818;51.078;12.108;2024-01-27T06:19:00;9.50;80.60
35700;DHT22;21818;51.078;12.108;2024-01-27T06:21:26;9.40;80.60
35700;DHT22;21818;51.078;12.108;2024-01-27T06:23:51;9.40;80.60
35700;DHT22;21818;51.078;12.108;2024-01-27T06:26:17;9.40;80.60
35700;DHT22;21818;51.078;12.108;2024-01-27T06:28:43;9.40;80.60
35700;DHT22;21818;51.078;12.108;2024-01-27T06:31:09;9.40;80.50
35700;DHT22;21818;51.078;12.108;2024-01-27T06:33:35;9.40;80.60
35700;DHT22;21818;51.078;12.108;2024-01-27T06:36:00;9.40;80.50
35700;DHT22;21818;51.078;12.108;2024-01-27T06:38:27;9.30;80.50
35700;DHT22;21818;51.078;12.108;2024-01-27T06:40:53;9.30;80.60
35700;DHT22;21818;51.078;12.108;2024-01-27T06:43:18;9.30;80.40
35700;DHT22;21818;51.078;12.108;2024-01-27T06:45:44;9.30;80.60
35700;DHT22;21818;51.078;12.108;2024-01-27T06:48:10;9.30;80.50
35700;DHT22;21818;51.078;12.108;2024-01-27T06:50:35;9.30;80.40
35700;DHT22;21818;51.078;12.108;2024-01-27T06:53:01;9.30;80.40
35700;DHT22;21818;51.078;12.108;2024-01-27T06:55:27;9.30;80.40
35700;DHT22;21818;51.078;12.108;2024-01-27T06:57:52;9.30;80.40
35700;DHT22;21818;51.078;12.108;2024-01-27T07:00:19;9.40;80.50
35700;DHT22;21818;51.078;12.108;2024-01-27T07:02:45;9.50;80.50
35700;DHT22;21818;51.078;12.108;2024-01-27T07:05:11;9.60;80.20
35700;DHT22;21818;51.078;12.108;2024-01-27T07:07:37;9.80;80.20
35700;DHT22;21818;51.078;12.108;2024-01-27T07:10:03;9.90;80.00
35700;DHT22;21818;51.078;12.108;2024-01-27T07:12:29;10.10;79.70
35700;DHT22;21818;51.078;12.108;2024-01-27T07:14:54;10.10;79.60
35700;DHT22;21818;51.078;12.108;2024-01-27T07:17:20;10.10;79.40
35700;DHT22;21818;51.078;12.108;2024-01-27T07:19:46;10.20;79.50
35700;DHT22;21818;51.078;12.108;2024-01-27T07:22:12;10.20;79.30
35700;DHT22;21818;51.078;12.108;2024-01-27T07:24:37;10.20;79.40
35700;DHT22;21818;51.078;12.108;2024-01-27T07:27:03;10.20;79.50
35700;DHT22;21818;51.078;12.108;2024-01-27T07:29:32;10.30;79.50
35700;DHT22;21818;51.078;12.108;2024-01-27T07:31:57;10.30;79.30
35700;DHT22;21818;51.078;12.108;2024-01-27T07:34:23;10.20;79.30
35700;DHT22;21818;51.078;12.108;2024-01-27T07:36:48;10.20;79.30
35700;DHT22;21818;51.078;12.108;2024-01-27T07:39:15;10.30;79.30
35700;DHT22;21818;51.078;12.108;2024-01-27T07:41:40;10.20;79.30
35700;DHT22;21818;51.078;12.108;2024-01-27T07:44:12;10.20;79.30
35700;DHT22;21818;51.078;12.108;2024-01-27T07:46:38;10.20;79.40
35700;DHT22;21818;51.078;12.108;2024-01-27T07:49:04;10.20;79.40
35700;DHT22;21818;51.078;12.108;2024-01-27T07:51:30;10.20;79.20
35700;DHT22;21818;51.078;12.108;2024-01-27T07:53:56;10.20;79.20
35700;DHT22;21818;51.078;12.108;2024-01-27T07:56:21;10.20;79.10
35700;DHT22;21818;51.078;12.108;2024-01-27T07:58:47;10.10;79.30
35700;DHT22;21818;51.078;12.108;2024-01-27T08:01:16;10.10;79.50
35700;DHT22;21818;51.078;12.108;2024-01-27T08:03:42;10.10;79.50
35700;DHT22;21818;51.078;12.108;2024-01-27T08:06:14;10.10;79.50
35700;DHT22;21818;51.078;12.108;2024-01-27T08:08:39;10.30;79.70
35700;DHT22;21818;51.078;12.108;2024-01-27T08:11:05;10.50;79.20
35700;DHT22;21818;51.078;12.108;2024-01-27T08:13:31;10.80;79.00
35700;DHT22;21818;51.078;12.108;2024-01-27T08:15:56;10.90;78.60
35700;DHT22;21818;51.078;12.108;2024-01-27T08:18:22;11.10;78.40
35700;DHT22;21818;51.078;12.108;2024-01-27T08:20:47;11.20;78.30
35700;DHT22;21818;51.078;12.108;2024-01-27T08:23:13;11.20;78.20
35700;DHT22;21818;51.078;12.108;2024-01-27T08:25:38;11.30;78.10
35700;DHT22;21818;51.078;12.108;2024-01-27T08:28:05;11.40;78.10
35700;DHT22;21818;51.078;12.108;2024-01-27T08:30:30;11.50;78.10
35700;DHT22;21818;51.078;12.108;2024-01-27T08:32:56;11.50;77.80
35700;DHT22;21818;51.078;12.108;2024-01-27T08:35:22;11.60;77.70
35700;DHT22;21818;51.078;12.108;2024-01-27T08:37:48;11.70;77.60
35700;DHT22;21818;51.078;12.108;2024-01-27T08:40:13;11.70;77.50
35700;DHT22;21818;51.078;12.108;2024-01-27T08:42:39;11.80;77.40
35700;DHT22;21818;51.078;12.108;2024-01-27T08:45:05;11.90;77.30
35700;DHT22;21818;51.078;12.108;2024-01-27T08:47:31;11.90;77.20
35700;DHT22;21818;51.078;12.108;2024-01-27T08:49:57;12.00;77.00
35700;DHT22;21818;51.078;12.108;2024-01-27T08:52:23;12.00;76.90
35700;DHT22;21818;51.078;12.108;2024-01-27T08:54:48;12.00;76.70
35700;DHT22;21818;51.078;12.108;2024-01-27T08:57:14;12.10;76.80
35700;DHT22;21818;51.078;12.108;2024-01-27T08:59:40;12.00;76.80
35700;DHT22;21818;51.078;12.108;2024-01-27T09:02:05;12.00;76.80
35700;DHT22;21818;51.078;12.108;2024-01-27T09:04:32;12.00;76.80
35700;DHT22;21818;51.078;12.108;2024-01-27T09:06:58;12.00;76.80
35700;DHT22;21818;51.078;12.108;2024-01-27T09:09:23;12.00;76.90
35700;DHT22;21818;51.078;12.108;2024-01-27T09:11:49;12.00;76.90
35700;DHT22;21818;51.078;12.108;2024-01-27T09:14:15;12.00;76.90
35700;DHT22;21818;51.078;12.108;2024-01-27T09:16:41;12.10;76.90
35700;DHT22;21818;51.078;12.108;2024-01-27T09:19:07;12.10;76.90
35700;DHT22;21818;51.078;12.108;2024-01-27T09:21:33;12.00;76.80
35700;DHT22;21818;51.078;12.108;2024-01-27T09:23:59;12.00;76.90
35700;DHT22;21818;51.078;12.108;2024-01-27T09:26:26;12.10;76.90
35700;DHT22;21818;51.078;12.108;2024-01-27T09:28:52;12.10;77.00
35700;DHT22;21818;51.078;12.108;2024-01-27T09:31:28;12.10;77.00
35700;DHT22;21818;51.078;12.108;2024-01-27T09:33:54;12.10;76.90
35700;DHT22;21818;51.078;12.108;2024-01-27T09:36:20;12.10;76.80
35700;DHT22;21818;51.078;12.108;2024-01-27T09:38:46;12.10;76.80
35700;DHT22;21818;51.078;12.108;2024-01-27T09:41:15;12.10;76.90
35700;DHT22;21818;51.078;12.108;2024-01-27T09:43:43;12.00;77.00
35700;DHT22;21818;51.078;12.108;2024-01-27T09:46:13;12.00;77.00
35700;DHT22;21818;51.078;12.108;2024-01-27T09:48:39;12.10;77.00
35700;DHT22;21818;51.078;12.108;2024-01-27T09:51:07;12.00;77.00
35700;DHT22;21818;51.078;12.108;2024-01-27T09:53:33;12.00;77.00
35700;DHT22;21818;51.078;12.108;2024-01-27T09:55:59;12.00;76.90
35700;DHT22;21818;51.078;12.108;2024-01-27T09:58:28;12.00;77.00
35700;DHT22;21818;51.078;12.108;2024-01-27T10:00:59;12.00;77.00
35700;DHT22;21818;51.078;12.108;2024-01-27T10:03:26;12.10;77.10
35700;DHT22;21818;51.078;12.108;2024-01-27T10:05:53;12.10;77.00
35700;DHT22;21818;51.078;12.108;2024-01-27T10:08:20;12.10;77.00
35700;DHT22;21818;51.078;12.108;2024-01-27T10:10:47;12.10;77.00
35700;DHT22;21818;51.078;12.108;2024-01-27T10:13:14;12.10;77.00
35700;DHT22;21818;51.078;12.108;2024-01-27T10:15:42;12.10;76.90
35700;DHT22;21818;51.078;12.108;2024-01-27T10:18:08;12.10;77.00
35700;DHT22;21818;51.078;12.108;2024-01-27T10:20:39;12.10;77.00
35700;DHT22;21818;51.078;12.108;2024-01-27T10:23:12;12.10;77.00
35700;DHT22;21818;51.078;12.108;2024-01-27T10:25:38;12.20;76.90
35700;DHT22;21818;51.078;12.108;2024-01-27T10:28:06;12.20;76.90
35700;DHT22;21818;51.078;12.108;2024-01-27T10:30:32;12.20;76.80
35700;DHT22;21818;51.078;12.108;2024-01-27T10:32:57;12.30;76.70
35700;DHT22;21818;51.078;12.108;2024-01-27T10:35:23;12.30;76.50
35700;DHT22;21818;51.078;12.108;2024-01-27T10:37:52;12.40;76.50
35700;DHT22;21818;51.078;12.108;2024-01-27T10:40:18;12.40;76.30
35700;DHT22;21818;51.078;12.108;2024-01-27T10:42:44;12.50;76.30
35700;DHT22;21818;51.078;12.108;2024-01-27T10:45:11;12.50;76.10
35700;DHT22;21818;51.078;12.108;2024-01-27T10:47:38;12.50;76.10
35700;DHT22;21818;51.078;12.108;2024-01-27T10:50:08;12.60;76.00
35700;DHT22;21818;51.078;12.108;2024-01-27T10:52:38;12.60;76.00
35700;DHT22;21818;51.078;12.108;2024-01-27T10:55:05;12.60;75.80
35700;DHT22;21818;51.078;12.108;2024-01-27T10:57:34;12.60;75.80
35700;DHT22;21818;51.078;12.108;2024-01-27T11:00:04;12.70;75.80
35700;DHT22;21818;51.078;12.108;2024-01-27T11:02:34;12.70;75.70
35700;DHT22;21818;51.078;12.108;2024-01-27T11:05:03;12.70;75.70
35700;DHT22;21818;51.078;12.108;2024-01-27T11:07:32;12.70;75.70
35700;DHT22;21818;51.078;12.108;2024-01-27T11:09:58;12.70;75.70
35700;DHT22;21818;51.078;12.108;2024-01-27T11:12:24;12.70;75.70
35700;DHT22;21818;51.078;12.108;2024-01-27T11:14:52;12.60;75.80
35700;DHT22;21818;51.078;12.108;2024-01-27T11:17:18;12.60;75.80
35700;DHT22;21818;51.078;12.108;2024-01-27T11:19:45;12.70;75.70
35700;DHT22;21818;51.078;12.108;2024-01-27T11:22:37;12.70;75.70
35700;DHT22;21818;51.078;12.108;2024-01-27T11:27:39;12.70;75.80
35700;DHT22;21818;51.078;12.108;2024-01-27T11:30:06;12.70;75.70
35700;DHT22;21818;51.078;12.108;2024-01-27T11:32:49;12.80;75.60
35700;DHT22;21818;51.078;12.108;2024-01-27T11:35:17;12.80;75.60
35700;DHT22;21818;51.078;12.108;2024-01-27T11:37:43;12.70;75.60
35700;DHT22;21818;51.078;12.108;2024-01-27T11:40:09;12.80;75.60
35700;DHT22;21818;51.078;12.108;2024-01-27T11:42:35;12.90;75.40
35700;DHT22;21818;51.078;12.108;2024-01-27T11:45:00;13.00;75.20
35700;DHT22;21818;51.078;12.108;2024-01-27T11:47:27;13.00;75.10
35700;DHT22;21818;51.078;12.108;2024-01-27T11:49:54;13.00;75.20
35700;DHT22;21818;51.078;12.108;2024-01-27T11:52:20;13.00;75.00
35700;DHT22;21818;51.078;12.108;2024-01-27T11:54:46;13.10;74.90
35700;DHT22;21818;51.078;12.108;2024-01-27T11:57:11;13.10;74.80
35700;DHT22;21818;51.078;12.108;2024-01-27T11:59:37;13.20;74.80
35700;DHT22;21818;51.078;12.108;2024-01-27T12:02:03;13.20;74.70
35700;DHT22;21818;51.078;12.108;2024-01-27T12:04:29;13.20;74.70
35700;DHT22;21818;51.078;12.108;2024-01-27T12:06:55;13.30;74.60
35700;DHT22;21818;51.078;12.108;2024-01-27T12:09:20;13.30;74.60
35700;DHT22;21818;51.078;12.108;2024-01-27T12:11:47;13.30;74.50
35700;DHT22;21818;51.078;12.108;2024-01-27T12:14:13;13.30;74.60
35700;DHT22;21818;51.078;12.108;2024-01-27T12:16:39;13.30;74.50
35700;DHT22;21818;51.078;12.108;2024-01-27T12:19:04;13.30;74.50
35700;DHT22;21818;51.078;12.108;2024-01-27T12:21:30;13.40;74.50
35700;DHT22;21818;51.078;12.108;2024-01-27T12:23:57;13.40;74.40
35700;DHT22;21818;51.078;12.108;2024-01-27T12:26:24;13.40;74.30
35700;DHT22;21818;51.078;12.108;2024-01-27T12:28:50;13.50;74.20
35700;DHT22;21818;51.078;12.108;2024-01-27T12:31:16;13.60;74.10
35700;DHT22;21818;51.078;12.108;2024-01-27T12:33:50;13.60;74.00
35700;DHT22;21818;51.078;12.108;2024-01-27T12:36:18;13.70;73.80
35700;DHT22;21818;51.078;12.108;2024-01-27T12:41:18;14.00;73.30
35700;DHT22;21818;51.078;12.108;2024-01-27T12:43:43;14.10;73.20
35700;DHT22;21818;51.078;12.108;2024-01-27T12:46:09;14.20;73.00
35700;DHT22;21818;51.078;12.108;2024-01-27T12:48:36;14.30;72.80
35700;DHT22;21818;51.078;12.108;2024-01-27T12:51:01;14.40;72.50
35700;DHT22;21818;51.078;12.108;2024-01-27T12:53:28;14.50;72.30
35700;DHT22;21818;51.078;12.108;2024-01-27T12:55:53;14.60;72.10
35700;DHT22;21818;51.078;12.108;2024-01-27T12:58:19;14.70;72.00
35700;DHT22;21818;51.078;12.108;2024-01-27T13:00:44;14.80;71.80
35700;DHT22;21818;51.078;12.108;2024-01-27T13:03:10;14.90;71.60
35700;DHT22;21818;51.078;12.108;2024-01-27T13:05:35;15.00;71.40
35700;DHT22;21818;51.078;12.108;2024-01-27T13:08:01;15.10;71.30
35700;DHT22;21818;51.078;12.108;2024-01-27T13:10:27;15.20;71.10
35700;DHT22;21818;51.078;12.108;2024-01-27T13:12:52;15.30;70.80
35700;DHT22;21818;51.078;12.108;2024-01-27T13:15:18;15.30;70.60
35700;DHT22;21818;51.078;12.108;2024-01-27T13:17:44;15.40;70.50
35700;DHT22;21818;51.078;12.108;2024-01-27T13:20:10;15.50;70.90
35700;DHT22;21818;51.078;12.108;2024-01-27T13:22:36;15.60;70.20
35700;DHT22;21818;51.078;12.108;2024-01-27T13:25:01;15.70;70.00
35700;DHT22;21818;51.078;12.108;2024-01-27T13:27:29;15.80;69.90
35700;DHT22;21818;51.078;12.108;2024-01-27T13:29:55;15.80;69.70
35700;DHT22;21818;51.078;12.108;2024-01-27T13:32:20;15.90;69.50
35700;DHT22;21818;51.078;12.108;2024-01-27T13:34:46;15.90;69.40
35700;DHT22;21818;51.078;12.108;2024-01-27T13:37:13;16.00;69.10
35700;DHT22;21818;51.078;12.108;2024-01-27T13:39:41;16.10;69.10
35700;DHT22;21818;51.078;12.108;2024-01-27T13:42:07;16.10;68.90
35700;DHT22;21818;51.078;12.108;2024-01-27T13:44:32;16.20;68.80
35700;DHT22;21818;51.078;12.108;2024-01-27T13:47:02;16.20;68.70
35700;DHT22;21818;51.078;12.108;2024-01-27T13:49:28;16.30;68.60
35700;DHT22;21818;51.078;12.108;2024-01-27T13:51:53;16.30;68.50
35700;DHT22;21818;51.078;12.108;2024-01-27T13:54:19;16.40;68.40
35700;DHT22;21818;51.078;12.108;2024-01-27T13:56:44;16.40;68.30
35700;DHT22;21818;51.078;12.108;2024-01-27T13:59:10;16.40;68.20
35700;DHT22;21818;51.078;12.108;2024-01-27T14:01:36;16.50;68.20
35700;DHT22;21818;51.078;12.108;2024-01-27T14:04:02;16.50;68.20
35700;DHT22;21818;51.078;12.108;2024-01-27T14:06:27;16.50;68.00
35700;DHT22;21818;51.078;12.108;2024-01-27T14:08:53;16.50;68.00
35700;DHT22;21818;51.078;12.108;2024-01-27T14:11:19;16.50;67.80
35700;DHT22;21818;51.078;12.108;2024-01-27T14:13:46;16.50;67.80
35700;DHT22;21818;51.078;12.108;2024-01-27T14:16:13;16.60;67.70
35700;DHT22;21818;51.078;12.108;2024-01-27T14:18:38;16.50;67.60
35700;DHT22;21818;51.078;12.108;2024-01-27T14:21:04;16.50;67.60
35700;DHT22;21818;51.078;12.108;2024-01-27T14:23:30;16.60;67.50
35700;DHT22;21818;51.078;12.108;2024-01-27T14:25:57;16.50;67.40
35700;DHT22;21818;51.078;12.108;2024-01-27T14:28:22;16.50;67.50
35700;DHT22;21818;51.078;12.108;2024-01-27T14:30:48;16.50;67.40
35700;DHT22;21818;51.078;12.108;2024-01-27T14:33:13;16.50;67.40
35700;DHT22;21818;51.078;12.108;2024-01-27T14:35:41;16.50;67.40
35700;DHT22;21818;51.078;12.108;2024-01-27T14:38:07;16.50;67.30
35700;DHT22;21818;51.078;12.108;2024-01-27T14:40:34;16.50;67.20
35700;DHT22;21818;51.078;12.108;2024-01-27T14:43:01;16.50;67.20
35700;DHT22;21818;51.078;12.108;2024-01-27T14:45:31;16.50;67.20
35700;DHT22;21818;51.078;12.108;2024-01-27T14:47:56;16.60;67.30
35700;DHT22;21818;51.078;12.108;2024-01-27T14:50:22;16.50;67.70
35700;DHT22;21818;51.078;12.108;2024-01-27T14:52:49;16.60;67.20
35700;DHT22;21818;51.078;12.108;2024-01-27T14:55:14;16.60;67.20
35700;DHT22;21818;51.078;12.108;2024-01-27T14:57:41;16.50;67.10
35700;DHT22;21818;51.078;12.108;2024-01-27T15:00:07;16.50;67.00
35700;DHT22;21818;51.078;12.108;2024-01-27T15:02:32;16.40;67.10
35700;DHT22;21818;51.078;12.108;2024-01-27T15:04:58;16.40;67.10
35700;DHT22;21818;51.078;12.108;2024-01-27T15:07:24;16.40;67.10
35700;DHT22;21818;51.078;12.108;2024-01-27T15:09:55;16.40;67.10
35700;DHT22;21818;51.078;12.108;2024-01-27T15:12:20;16.30;66.70
35700;DHT22;21818;51.078;12.108;2024-01-27T15:14:46;16.20;68.00
35700;DHT22;21818;51.078;12.108;2024-01-27T15:17:12;16.20;67.50
35700;DHT22;21818;51.078;12.108;2024-01-27T15:19:37;16.10;67.50